Time;durP1;ratioP1;P1;durP2;ratioP2;P2;SDS_P1;SDS_P2;PMS_P1;PMS_P2;Temp;Humidity;BMP_temperature;BMP_pressure;BME280_temperature;BME280_humidity;BME280_pressure;Samples;Min_cycle;Max_cycle;Signal;HPM_P1;HPM_P2
2022/01/08 00:01:58;;;;;;;11.00;4.10;;;;;;;;;;5007818;28;20026;-83
2022/01/08 00:04:24;;;;;;;10.13;4.50;;;;;;;;;;5007380;28;20030;-84
2022/01/08 00:06:51;;;;;;;5.35;3.65;;;;;;;;;;5008890;28;20098;-84
2022/01/08 00:09:17;;;;;;;7.35;4.70;;;;;;;;;;5009100;28;20470;-84
2022/01/08 00:11:43;;;;;;;6.65;4.43;;;;;;;;;;5008365;28;20493;-83
2022/01/08 00:14:10;;;;;;;6.43;4.32;;;;;;;;;;5005657;28;20030;-82
2022/01/08 00:16:39;;;;;;;5.63;3.83;;;;;;;;;;5003070;28;20023;-84
2022/01/08 00:19:05;;;;;;;7.57;4.78;;;;;;;;;;5018558;28;20026;-82
2022/01/08 00:21:32;;;;;;;8.27;4.93;;;;;;;;;;5018158;28;20023;-82
2022/01/08 00:23:58;;;;;;;8.75;5.43;;;;;;;;;;5017926;28;20010;-82
2022/01/08 00:26:24;;;;;;;6.78;5.10;;;;;;;;;;5017543;28;20046;-82
2022/01/08 00:28:50;;;;;;;9.55;5.07;;;;;;;;;;5010318;28;20030;-83
2022/01/08 00:31:16;;;;;;;6.57;4.95;;;;;;;;;;5004609;28;20545;-84
2022/01/08 00:33:42;;;;;;;7.68;5.20;;;;;;;;;;5003498;28;20026;-84
2022/01/08 00:36:08;;;;;;;10.05;4.68;;;;;;;;;;5000830;28;20085;-83
2022/01/08 00:38:35;;;;;;;11.50;5.18;;;;;;;;;;5000226;28;20026;-83
2022/01/08 00:41:00;;;;;;;14.07;5.30;;;;;;;;;;5001239;28;20022;-83
2022/01/08 00:43:27;;;;;;;8.55;5.32;;;;;;;;;;5003497;28;20093;-83
2022/01/08 00:45:53;;;;;;;7.95;4.85;;;;;;;;;;5001665;28;20029;-83
2022/01/08 00:48:19;;;;;;;5.68;4.45;;;;;;;;;;5002393;28;20155;-82
2022/01/08 00:50:45;;;;;;;8.38;4.85;;;;;;;;;;4985242;28;20027;-83
2022/01/08 00:53:11;;;;;;;7.32;4.88;;;;;;;;;;5034233;23;20046;-83
2022/01/08 00:55:37;;;;;;;6.00;4.05;;;;;;;;;;4984508;28;20456;-83
2022/01/08 00:58:03;;;;;;;4.50;3.83;;;;;;;;;;4978048;28;20042;-83
2022/01/08 01:00:29;;;;;;;5.22;4.18;;;;;;;;;;4976391;28;20020;-83
2022/01/08 01:02:55;;;;;;;5.32;4.00;;;;;;;;;;4963697;29;20550;-83
2022/01/08 01:05:22;;;;;;;4.68;3.70;;;;;;;;;;4981625;28;20042;-83
2022/01/08 01:07:48;;;;;;;8.27;3.67;;;;;;;;;;4984097;28;20050;-84
2022/01/08 01:10:15;;;;;;;5.25;3.63;;;;;;;;;;4990029;28;20372;-83
2022/01/08 01:12:41;;;;;;;5.32;3.38;;;;;;;;;;4979202;28;20465;-83
2022/01/08 01:15:12;;;;;;;3.88;3.40;;;;;;;;;;4977306;28;20398;-83
2022/01/08 01:17:38;;;;;;;5.07;3.50;;;;;;;;;;4979493;28;20117;-83
2022/01/08 01:20:05;;;;;;;4.13;3.13;;;;;;;;;;4981593;28;20026;-83
2022/01/08 01:22:42;;;;;;;6.22;3.20;;;;;;;;;;4983054;28;20030;-83
2022/01/08 01:25:11;;;;;;;4.03;2.95;;;;;;;;;;4983316;28;20026;-83
2022/01/08 01:30:19;;;;;;;4.82;2.80;;;;;;;;;;4982393;28;20047;-83
2022/01/08 01:49:10;;;;;;;2.65;2.38;;;;;;;;;;4966334;29;20042;-83
2022/01/08 01:51:36;;;;;;;4.20;2.08;;;;;;;;;;4965042;28;20031;-84
2022/01/08 01:54:02;;;;;;;2.10;1.90;;;;;;;;;;4963159;29;20193;-83
2022/01/08 01:56:28;;;;;;;3.13;2.42;;;;;;;;;;4971878;28;20069;-84
2022/01/08 01:58:54;;;;;;;2.55;1.75;;;;;;;;;;4982365;28;20038;-84
2022/01/08 02:01:20;;;;;;;2.55;2.35;;;;;;;;;;4980878;28;20053;-83
2022/01/08 02:03:46;;;;;;;3.67;2.17;;;;;;;;;;4982870;28;20026;-84
2022/01/08 02:06:12;;;;;;;1.90;1.70;;;;;;;;;;4982864;28;20038;-83
2022/01/08 02:08:39;;;;;;;2.97;1.85;;;;;;;;;;4983774;28;20023;-82
2022/01/08 02:11:07;;;;;;;3.25;2.10;;;;;;;;;;4982414;28;20054;-83
2022/01/08 02:13:33;;;;;;;3.03;2.50;;;;;;;;;;4979438;28;20089;-83
2022/01/08 02:16:01;;;;;;;2.83;2.20;;;;;;;;;;4979613;28;20018;-82
2022/01/08 02:18:28;;;;;;;2.67;1.92;;;;;;;;;;4980112;28;20138;-83
2022/01/08 02:20:58;;;;;;;3.60;2.30;;;;;;;;;;4980729;28;20027;-83
2022/01/08 02:23:24;;;;;;;2.85;2.03;;;;;;;;;;4980741;28;20023;-84
2022/01/08 02:25:50;;;;;;;2.38;1.83;;;;;;;;;;4980912;28;20410;-83
2022/01/08 02:28:19;;;;;;;3.08;2.40;;;;;;;;;;4981326;28;20030;-83
2022/01/08 02:30:45;;;;;;;2.83;2.28;;;;;;;;;;4962097;29;20440;-83
2022/01/08 02:33:11;;;;;;;2.20;1.88;;;;;;;;;;4963905;28;20027;-83
2022/01/08 02:35:37;;;;;;;2.30;2.10;;;;;;;;;;4979692;28;20038;-85
2022/01/08 02:38:04;;;;;;;2.38;2.00;;;;;;;;;;4966455;28;20064;-83
2022/01/08 02:40:30;;;;;;;2.33;2.00;;;;;;;;;;4962712;28;20114;-83
2022/01/08 02:43:03;;;;;;;5.80;2.00;;;;;;;;;;4961231;29;20555;-83
2022/01/08 02:45:29;;;;;;;2.38;1.95;;;;;;;;;;4969153;28;20042;-83
2022/01/08 02:47:56;;;;;;;2.60;1.98;;;;;;;;;;4977278;28;20023;-84
2022/01/08 02:50:22;;;;;;;2.47;2.05;;;;;;;;;;4977586;28;20030;-83
2022/01/08 02:52:49;;;;;;;4.20;2.08;;;;;;;;;;4977780;28;20206;-83
2022/01/08 02:55:18;;;;;;;2.22;1.95;;;;;;;;;;4976748;28;20026;-84
2022/01/08 02:57:44;;;;;;;2.95;2.42;;;;;;;;;;4976899;28;20027;-83
2022/01/08 03:00:13;;;;;;;2.75;1.85;;;;;;;;;;4982043;28;20082;-82
2022/01/08 03:02:47;;;;;;;2.67;2.03;;;;;;;;;;4980565;28;20107;-83
2022/01/08 03:05:13;;;;;;;2.10;1.90;;;;;;;;;;4977269;28;20025;-82
2022/01/08 03:07:40;;;;;;;2.75;2.00;;;;;;;;;;4978044;28;20031;-82
2022/01/08 03:10:07;;;;;;;3.28;2.00;;;;;;;;;;4989673;28;20026;-82
2022/01/08 03:12:33;;;;;;;3.17;2.25;;;;;;;;;;4981943;28;20030;-84
2022/01/08 03:14:59;;;;;;;2.55;2.35;;;;;;;;;;4979420;28;20034;-84
2022/01/08 03:17:26;;;;;;;2.25;1.80;;;;;;;;;;4976358;28;20090;-83
2022/01/08 03:19:53;;;;;;;2.63;2.40;;;;;;;;;;4977759;28;20027;-83
2022/01/08 03:22:19;;;;;;;2.60;2.15;;;;;;;;;;4977142;28;20053;-84
2022/01/08 03:24:45;;;;;;;3.15;2.20;;;;;;;;;;4977149;28;20058;-84
2022/01/08 03:27:12;;;;;;;3.08;2.38;;;;;;;;;;4975957;28;20134;-84
2022/01/08 03:29:38;;;;;;;2.45;2.25;;;;;;;;;;4979087;28;20125;-83
2022/01/08 03:32:04;;;;;;;2.40;2.17;;;;;;;;;;4979893;28;20038;-83
2022/01/08 03:34:30;;;;;;;2.53;1.98;;;;;;;;;;4976991;28;20372;-84
2022/01/08 03:36:56;;;;;;;2.03;1.80;;;;;;;;;;4977908;28;20086;-83
2022/01/08 03:39:22;;;;;;;2.22;1.77;;;;;;;;;;4976145;28;20023;-84
2022/01/08 03:41:48;;;;;;;2.05;1.73;;;;;;;;;;4976221;28;20391;-83
2022/01/08 03:44:14;;;;;;;1.70;1.60;;;;;;;;;;4976989;28;20027;-84
2022/01/08 03:46:40;;;;;;;1.60;1.50;;;;;;;;;;4977409;28;20034;-84
2022/01/08 03:49:25;;;;;;;1.50;1.40;;;;;;;;;;4978956;28;20027;-83
2022/01/08 03:51:52;;;;;;;1.70;1.60;;;;;;;;;;4979792;28;20037;-84
2022/01/08 03:54:18;;;;;;;1.48;1.13;;;;;;;;;;4979159;28;20041;-84
2022/01/08 03:56:44;;;;;;;1.35;1.25;;;;;;;;;;4980956;28;20086;-84
2022/01/08 03:59:10;;;;;;;1.60;1.10;;;;;;;;;;4979674;28;20038;-84
2022/01/08 04:01:36;;;;;;;1.10;1.00;;;;;;;;;;4975488;28;20050;-84
2022/01/08 04:04:02;;;;;;;1.30;1.17;;;;;;;;;;4977186;28;20023;-84
2022/01/08 04:06:28;;;;;;;1.25;1.10;;;;;;;;;;4977750;28;20027;-84
2022/01/08 04:08:58;;;;;;;1.80;1.00;;;;;;;;;;4977299;28;20035;-84
2022/01/08 04:11:25;;;;;;;1.38;0.93;;;;;;;;;;4978231;28;20041;-84
2022/01/08 04:13:51;;;;;;;2.60;0.80;;;;;;;;;;4979442;28;20037;-84
2022/01/08 04:16:22;;;;;;;0.95;0.95;;;;;;;;;;4979767;28;20022;-84
2022/01/08 04:18:48;;;;;;;1.55;0.80;;;;;;;;;;4976601;28;20038;-83
2022/01/08 04:23:52;;;;;;;2.35;0.90;;;;;;;;;;4976942;28;20038;-84
2022/01/08 04:26:21;;;;;;;1.88;1.00;;;;;;;;;;4977111;28;20034;-83
2022/01/08 04:28:47;;;;;;;0.98;0.70;;;;;;;;;;4980042;28;20026;-84
2022/01/08 04:31:13;;;;;;;3.33;1.00;;;;;;;;;;4981936;28;20031;-85
2022/01/08 04:33:39;;;;;;;2.42;1.17;;;;;;;;;;4981122;28;20101;-83
2022/01/08 04:36:05;;;;;;;1.58;1.00;;;;;;;;;;4981780;28;20027;-82
2022/01/08 04:38:32;;;;;;;1.00;0.95;;;;;;;;;;4980966;28;20114;-83
2022/01/08 04:40:58;;;;;;;5.35;1.10;;;;;;;;;;4986330;28;20019;-82
2022/01/08 04:43:24;;;;;;;2.95;0.90;;;;;;;;;;4984347;28;20030;-82
2022/01/08 04:45:51;;;;;;;1.25;0.90;;;;;;;;;;4985324;28;20121;-85
2022/01/08 04:48:18;;;;;;;0.70;0.60;;;;;;;;;;4983261;28;20030;-82
2022/01/08 04:50:44;;;;;;;0.70;0.70;;;;;;;;;;4983180;28;20031;-83
2022/01/08 04:53:10;;;;;;;2.90;0.90;;;;;;;;;;4984651;28;20046;-83
2022/01/08 04:55:37;;;;;;;2.55;0.90;;;;;;;;;;4981109;28;20023;-82
2022/01/08 04:58:03;;;;;;;0.90;0.90;;;;;;;;;;4978812;28;20114;-84
2022/01/08 05:00:30;;;;;;;1.40;1.10;;;;;;;;;;4981392;28;20110;-83
2022/01/08 05:02:56;;;;;;;7.40;1.10;;;;;;;;;;4985600;28;20559;-84
2022/01/08 05:05:22;;;;;;;3.88;1.10;;;;;;;;;;4982761;28;20027;-84
2022/01/08 05:07:48;;;;;;;0.90;0.90;;;;;;;;;;4981598;28;20070;-84
2022/01/08 05:10:14;;;;;;;0.93;0.93;;;;;;;;;;4991471;28;20026;-84
2022/01/08 05:12:40;;;;;;;0.98;0.98;;;;;;;;;;4981256;28;20023;-84
2022/01/08 05:15:06;;;;;;;1.55;1.40;;;;;;;;;;4981834;28;20029;-84
2022/01/08 05:17:36;;;;;;;3.92;1.58;;;;;;;;;;4982821;28;20030;-83
2022/01/08 05:20:10;;;;;;;1.30;1.20;;;;;;;;;;4979930;28;20030;-84
2022/01/08 05:23:00;;;;;;;1.33;1.17;;;;;;;;;;4982279;28;20023;-84
2022/01/08 05:25:26;;;;;;;1.90;1.40;;;;;;;;;;4984722;28;20023;-83
2022/01/08 05:27:52;;;;;;;2.65;1.30;;;;;;;;;;4979509;28;20041;-84
2022/01/08 05:30:19;;;;;;;3.28;1.48;;;;;;;;;;4987435;28;20019;-85
2022/01/08 05:32:46;;;;;;;5.85;1.77;;;;;;;;;;4999850;28;20034;-84
2022/01/08 05:35:12;;;;;;;3.63;1.75;;;;;;;;;;4988053;28;20045;-84
2022/01/08 05:37:38;;;;;;;3.35;1.98;;;;;;;;;;4991211;28;20023;-85
2022/01/08 05:40:05;;;;;;;6.43;2.30;;;;;;;;;;4999050;28;20023;-85
2022/01/08 05:42:31;;;;;;;5.72;2.38;;;;;;;;;;4999735;28;20030;-86
2022/01/08 05:44:57;;;;;;;5.22;2.70;;;;;;;;;;4999557;28;20025;-85
2022/01/08 05:47:27;;;;;;;2.70;2.47;;;;;;;;;;4999045;28;20023;-85
2022/01/08 05:49:53;;;;;;;4.03;2.50;;;;;;;;;;4999493;28;20019;-86
2022/01/08 05:52:19;;;;;;;5.05;2.30;;;;;;;;;;4999374;28;20041;-86
2022/01/08 05:54:45;;;;;;;5.00;2.88;;;;;;;;;;4998621;28;20042;-86
2022/01/08 05:57:11;;;;;;;2.92;2.50;;;;;;;;;;4998345;28;20042;-84
2022/01/08 05:59:37;;;;;;;5.00;2.65;;;;;;;;;;4999362;28;20023;-84
2022/01/08 06:02:03;;;;;;;4.63;2.78;;;;;;;;;;4999497;28;20015;-85
2022/01/08 06:04:29;;;;;;;3.45;1.85;;;;;;;;;;4998829;28;20019;-85
2022/01/08 06:06:55;;;;;;;11.65;2.90;;;;;;;;;;4999103;28;20096;-84
2022/01/08 06:09:21;;;;;;;8.95;2.95;;;;;;;;;;5000201;28;20094;-85
2022/01/08 06:11:47;;;;;;;7.07;2.25;;;;;;;;;;4999898;28;20023;-86
2022/01/08 06:14:13;;;;;;;5.20;2.65;;;;;;;;;;4999450;28;20015;-84
2022/01/08 06:16:39;;;;;;;3.75;2.65;;;;;;;;;;4998826;28;20033;-85
2022/01/08 06:19:10;;;;;;;7.03;2.72;;;;;;;;;;4999357;28;20037;-84
2022/01/08 06:21:36;;;;;;;8.40;3.20;;;;;;;;;;4999954;28;20034;-85
2022/01/08 06:24:03;;;;;;;7.05;3.25;;;;;;;;;;4999762;28;20021;-85
2022/01/08 06:26:29;;;;;;;3.13;2.55;;;;;;;;;;4999282;28;20018;-85
2022/01/08 06:28:55;;;;;;;10.77;3.33;;;;;;;;;;4999861;28;20032;-85
2022/01/08 06:31:22;;;;;;;7.38;3.30;;;;;;;;;;4998769;28;20094;-83
2022/01/08 06:33:48;;;;;;;9.50;2.95;;;;;;;;;;4999688;28;20023;-85
2022/01/08 06:36:17;;;;;;;9.25;3.22;;;;;;;;;;4999355;28;20025;-84
2022/01/08 06:38:43;;;;;;;5.07;3.08;;;;;;;;;;4998493;28;20039;-85
2022/01/08 06:41:09;;;;;;;4.90;3.03;;;;;;;;;;4999440;28;20079;-83
2022/01/08 06:43:35;;;;;;;6.50;2.88;;;;;;;;;;4998622;28;20041;-83
2022/01/08 06:46:03;;;;;;;5.18;3.10;;;;;;;;;;4998174;28;20046;-84
2022/01/08 06:48:29;;;;;;;7.13;3.33;;;;;;;;;;4998249;28;20034;-82
2022/01/08 06:50:55;;;;;;;7.57;3.70;;;;;;;;;;4999010;28;20019;-84
2022/01/08 06:53:21;;;;;;;7.55;3.53;;;;;;;;;;4999130;28;20045;-85
2022/01/08 06:55:47;;;;;;;6.43;3.53;;;;;;;;;;4999321;28;20071;-85
2022/01/08 06:58:13;;;;;;;7.53;3.67;;;;;;;;;;4998631;28;20031;-84
2022/01/08 07:00:39;;;;;;;5.80;3.97;;;;;;;;;;4998598;28;20014;-85
2022/01/08 07:03:10;;;;;;;9.43;4.43;;;;;;;;;;4999082;28;20019;-84
2022/01/08 07:05:37;;;;;;;16.88;4.57;;;;;;;;;;4999172;28;20015;-84
2022/01/08 07:08:03;;;;;;;8.32;4.05;;;;;;;;;;4998715;28;20030;-84
2022/01/08 07:10:29;;;;;;;10.13;5.00;;;;;;;;;;4998971;28;20111;-85
2022/01/08 07:12:55;;;;;;;9.95;5.20;;;;;;;;;;4998966;28;20025;-84
2022/01/08 07:15:21;;;;;;;11.57;4.82;;;;;;;;;;4998718;28;20037;-85
2022/01/08 07:17:47;;;;;;;14.55;5.20;;;;;;;;;;4998485;28;20035;-85
2022/01/08 07:20:13;;;;;;;9.23;5.30;;;;;;;;;;4998800;28;20034;-85
2022/01/08 07:22:40;;;;;;;13.80;5.53;;;;;;;;;;4998894;28;20047;-85
2022/01/08 07:25:07;;;;;;;15.13;4.80;;;;;;;;;;4999079;28;20038;-84
2022/01/08 07:27:33;;;;;;;10.50;5.57;;;;;;;;;;4998593;28;20007;-88
2022/01/08 07:30:00;;;;;;;15.15;7.35;;;;;;;;;;4998305;28;20023;-87
2022/01/08 07:32:26;;;;;;;12.07;6.75;;;;;;;;;;4998703;28;20015;-87
2022/01/08 07:34:52;;;;;;;14.63;6.97;;;;;;;;;;4998822;28;20065;-86
2022/01/08 07:37:18;;;;;;;15.95;6.22;;;;;;;;;;4997589;28;20026;-88
2022/01/08 07:39:44;;;;;;;18.40;6.93;;;;;;;;;;4998062;28;20043;-86
2022/01/08 07:42:10;;;;;;;17.20;6.57;;;;;;;;;;4998699;28;20031;-86
2022/01/08 07:44:36;;;;;;;17.70;6.57;;;;;;;;;;4998539;28;20038;-86
2022/01/08 07:47:02;;;;;;;16.83;6.70;;;;;;;;;;4998308;28;20011;-86
2022/01/08 07:49:28;;;;;;;18.05;6.05;;;;;;;;;;4998584;28;20074;-86
2022/01/08 07:51:54;;;;;;;16.73;6.25;;;;;;;;;;4997717;28;20026;-86
2022/01/08 07:54:20;;;;;;;24.30;7.75;;;;;;;;;;4998769;28;20022;-88
2022/01/08 07:56:46;;;;;;;16.13;6.40;;;;;;;;;;4997422;28;20030;-85
2022/01/08 07:59:12;;;;;;;11.40;5.88;;;;;;;;;;4998603;28;20021;-86
2022/01/08 08:01:38;;;;;;;17.23;7.22;;;;;;;;;;4998537;28;20023;-86
2022/01/08 08:04:04;;;;;;;16.25;6.10;;;;;;;;;;5002066;28;20030;-85
2022/01/08 08:06:32;;;;;;;16.63;6.65;;;;;;;;;;5001934;28;20023;-85
2022/01/08 08:08:59;;;;;;;15.30;7.05;;;;;;;;;;5002267;28;20011;-86
2022/01/08 08:11:25;;;;;;;19.70;6.63;;;;;;;;;;5002112;28;20029;-85
2022/01/08 08:13:51;;;;;;;18.58;6.13;;;;;;;;;;5001798;28;20027;-86
2022/01/08 08:16:18;;;;;;;16.77;5.90;;;;;;;;;;5001251;28;20022;-85
2022/01/08 08:18:44;;;;;;;8.43;5.47;;;;;;;;;;5002158;28;20058;-85
2022/01/08 08:21:10;;;;;;;15.00;5.80;;;;;;;;;;5001992;28;20011;-86
2022/01/08 08:23:36;;;;;;;16.98;6.25;;;;;;;;;;5002030;28;20015;-85
2022/01/08 08:26:02;;;;;;;15.50;5.32;;;;;;;;;;5001839;28;20070;-88
2022/01/08 08:28:29;;;;;;;15.93;5.50;;;;;;;;;;5001117;28;20034;-90
2022/01/08 08:30:55;;;;;;;11.85;5.03;;;;;;;;;;5001863;28;20023;-89
2022/01/08 08:33:21;;;;;;;15.70;5.20;;;;;;;;;;5001860;28;20043;-87
2022/01/08 08:35:47;;;;;;;13.73;5.85;;;;;;;;;;5001643;28;20018;-89
2022/01/08 08:38:13;;;;;;;14.85;5.03;;;;;;;;;;4999846;28;20022;-88
2022/01/08 08:40:39;;;;;;;12.85;4.65;;;;;;;;;;5000716;28;20037;-88
2022/01/08 08:43:06;;;;;;;12.77;5.30;;;;;;;;;;5000921;28;20094;-87
2022/01/08 08:45:32;;;;;;;16.45;5.13;;;;;;;;;;5000721;28;20014;-87
2022/01/08 08:47:58;;;;;;;11.20;4.13;;;;;;;;;;5000648;28;20042;-87
2022/01/08 08:50:24;;;;;;;11.95;5.05;;;;;;;;;;4979234;28;20030;-87
2022/01/08 08:52:51;;;;;;;17.83;5.25;;;;;;;;;;4979865;28;20030;-86
2022/01/08 08:55:18;;;;;;;7.53;4.57;;;;;;;;;;4979600;28;20111;-85
2022/01/08 08:57:44;;;;;;;10.65;5.53;;;;;;;;;;4979215;28;20053;-86
2022/01/08 09:00:11;;;;;;;19.00;4.70;;;;;;;;;;4979323;28;20019;-87
2022/01/08 09:05:40;;;;;;;18.00;6.05;;;;;;;;;;5000478;28;20026;-88
2022/01/08 09:08:07;;;;;;;10.07;4.55;;;;;;;;;;5000831;28;20018;-87
2022/01/08 09:10:33;;;;;;;14.52;5.00;;;;;;;;;;5001086;28;20030;-86
2022/01/08 09:12:59;;;;;;;12.38;4.90;;;;;;;;;;4994260;28;20143;-84
2022/01/08 09:15:54;;;;;;;14.43;4.65;;;;;;;;;;4978646;28;20035;-85
2022/01/08 09:18:25;;;;;;;11.88;4.55;;;;;;;;;;4955018;28;20068;-84
2022/01/08 09:24:06;;;;;;;11.50;4.15;;;;;;;;;;4979318;28;20094;-84
2022/01/08 09:32:43;;;;;;;7.93;3.83;;;;;;;;;;4938742;29;20031;-84
2022/01/08 09:35:31;;;;;;;8.05;3.83;;;;;;;;;;4938913;29;20047;-84
2022/01/08 09:37:57;;;;;;;11.07;4.25;;;;;;;;;;4906069;29;20122;-85
2022/01/08 09:40:52;;;;;;;11.70;4.30;;;;;;;;;;4938875;29;20032;-85
2022/01/08 09:43:21;;;;;;;10.48;4.63;;;;;;;;;;4942080;29;20099;-83
2022/01/08 09:45:48;;;;;;;8.23;4.35;;;;;;;;;;4941860;29;20174;-81
2022/01/08 09:48:14;;;;;;;10.13;3.65;;;;;;;;;;4972214;28;20073;-84
2022/01/08 09:50:44;;;;;;;8.60;3.25;;;;;;;;;;4979784;28;20475;-83
2022/01/08 09:53:10;;;;;;;9.15;3.83;;;;;;;;;;4980107;28;20054;-84
2022/01/08 09:58:40;;;;;;;7.07;3.30;;;;;;;;;;4944110;28;20039;-84
2022/01/08 10:01:58;;;;;;;;;;;;;;;;;;;;;
2022/01/08 10:04:33;;;;;;;9.05;3.13;;;;;;;;;;4956230;29;20110;-84
2022/01/08 10:07:18;;;;;;;6.10;2.72;;;;;;;;;;4956095;29;20067;-83
2022/01/08 10:19:37;;;;;;;4.72;2.60;;;;;;;;;;4880791;29;20131;-84
2022/01/08 10:22:41;;;;;;;7.22;2.55;;;;;;;;;;4890427;29;20040;-84
2022/01/08 10:25:11;;;;;;;6.78;2.83;;;;;;;;;;4862403;29;20120;-84
2022/01/08 10:27:37;;;;;;;4.65;2.50;;;;;;;;;;4931197;28;20403;-84
2022/01/08 10:30:08;;;;;;;6.10;2.70;;;;;;;;;;4979731;28;20317;-83
2022/01/08 10:33:02;;;;;;;5.93;2.90;;;;;;;;;;4984531;28;20034;-85
2022/01/08 10:35:47;;;;;;;5.20;2.97;;;;;;;;;;4969081;28;20031;-85
2022/01/08 10:38:13;;;;;;;11.00;2.72;;;;;;;;;;4980194;28;20034;-84
2022/01/08 10:40:39;;;;;;;4.10;2.65;;;;;;;;;;4982703;28;20022;-85
2022/01/08 10:43:21;;;;;;;4.75;2.60;;;;;;;;;;4981934;28;20027;-83
2022/01/08 10:45:47;;;;;;;;;;;;;;;;;;4982460;28;20110;-84
2022/01/08 10:48:13;;;;;;;9.38;2.10;;;;;;;;;;4981517;28;19917;-86
2022/01/08 10:50:39;;;;;;;5.43;2.28;;;;;;;;;;4982486;28;20037;-86
2022/01/08 10:53:05;;;;;;;4.78;1.83;;;;;;;;;;4982777;28;20141;-84
2022/01/08 10:55:45;;;;;;;4.82;1.80;;;;;;;;;;4981381;28;20035;-85
2022/01/08 10:58:21;;;;;;;;;;;;;;;;;;;;;
2022/01/08 11:01:15;;;;;;;6.07;1.90;;;;;;;;;;4975974;28;20091;-86
2022/01/08 11:07:00;;;;;;;3.90;2.33;;;;;;;;;;4939517;29;20091;-85
2022/01/08 11:09:27;;;;;;;6.53;2.20;;;;;;;;;;4979264;28;20054;-85
2022/01/08 11:11:58;;;;;;;4.47;2.65;;;;;;;;;;4982164;28;20027;-85
2022/01/08 11:17:38;;;;;;;5.95;2.65;;;;;;;;;;4973110;28;20147;-84
2022/01/08 11:20:04;;;;;;;5.40;2.75;;;;;;;;;;4974849;28;20026;-84
2022/01/08 11:22:31;;;;;;;3.90;2.53;;;;;;;;;;4980448;28;20027;-84
2022/01/08 11:25:07;;;;;;;7.35;3.88;;;;;;;;;;4978227;28;20018;-86
2022/01/08 11:27:45;;;;;;;5.90;3.15;;;;;;;;;;4976263;28;20026;-83
2022/01/08 11:30:13;;;;;;;6.97;3.28;;;;;;;;;;4976549;28;20368;-84
2022/01/08 11:32:39;;;;;;;5.97;3.30;;;;;;;;;;4976186;28;20034;-83
2022/01/08 11:35:06;;;;;;;6.93;3.13;;;;;;;;;;4978724;28;20035;-82
2022/01/08 11:37:33;;;;;;;7.28;3.70;;;;;;;;;;4976692;28;20022;-84
2022/01/08 11:40:05;;;;;;;11.88;3.75;;;;;;;;;;4978084;28;20022;-81
2022/01/08 11:42:33;;;;;;;8.70;2.95;;;;;;;;;;4980973;28;20038;-84
2022/01/08 11:45:00;;;;;;;8.63;3.22;;;;;;;;;;4980799;28;20038;-83
2022/01/08 11:47:29;;;;;;;12.50;3.67;;;;;;;;;;4983268;28;20027;-85
2022/01/08 11:49:56;;;;;;;7.93;2.60;;;;;;;;;;4981236;28;20061;-84
2022/01/08 11:52:23;;;;;;;8.13;3.75;;;;;;;;;;4983960;28;20137;-83
2022/01/08 11:54:50;;;;;;;6.22;2.83;;;;;;;;;;4982274;28;20030;-86
2022/01/08 11:57:23;;;;;;;6.60;3.38;;;;;;;;;;4983996;28;20035;-84
2022/01/08 11:59:56;;;;;;;8.85;3.30;;;;;;;;;;4981732;28;20074;-86
2022/01/08 12:02:22;;;;;;;7.95;2.70;;;;;;;;;;4980937;28;20058;-82
2022/01/08 12:04:52;;;;;;;4.45;1.88;;;;;;;;;;4983998;28;20038;-83
2022/01/08 12:07:33;;;;;;;6.57;2.25;;;;;;;;;;4982136;28;20027;-84
2022/01/08 12:10:38;;;;;;;7.13;2.33;;;;;;;;;;4978919;28;20050;-83
2022/01/08 12:16:36;;;;;;;5.63;1.60;;;;;;;;;;4957896;28;20089;-85
2022/01/08 12:19:02;;;;;;;;;;;;;;;;;;4976031;28;20037;-81
2022/01/08 12:21:38;;;;;;;9.98;1.55;;;;;;;;;;4967170;28;19907;-82
2022/01/08 12:24:25;;;;;;;3.42;1.70;;;;;;;;;;4980745;28;20027;-84
2022/01/08 12:26:53;;;;;;;4.15;1.48;;;;;;;;;;4978057;28;20031;-86
2022/01/08 12:29:38;;;;;;;4.57;1.25;;;;;;;;;;4979807;28;20046;-86
2022/01/08 12:35:59;;;;;;;6.53;1.50;;;;;;;;;;4980322;28;20032;-83
2022/01/08 12:38:23;;;;;;;4.03;1.38;;;;;;;;;;4964341;28;20039;-84
2022/01/08 12:40:55;;;;;;;7.30;1.88;;;;;;;;;;4979126;28;20031;-85
2022/01/08 12:43:21;;;;;;;5.85;1.80;;;;;;;;;;4976341;28;20019;-81
2022/01/08 12:46:03;;;;;;;;;;;;;;;;;;;;;
2022/01/08 12:48:38;;;;;;;3.95;1.60;;;;;;;;;;4975376;28;20049;-81
2022/01/08 12:51:20;;;;;;;3.92;1.55;;;;;;;;;;4978616;28;20031;-81
2022/01/08 12:54:04;;;;;;;7.18;1.48;;;;;;;;;;4979771;28;20030;-82
2022/01/08 12:56:30;;;;;;;3.30;1.17;;;;;;;;;;4976303;28;20089;-81
2022/01/08 12:58:56;;;;;;;2.50;1.40;;;;;;;;;;4979190;28;20050;-81
2022/01/08 13:01:29;;;;;;;4.18;1.48;;;;;;;;;;4976939;28;20043;-82
2022/01/08 13:04:29;;;;;;;1.90;1.40;;;;;;;;;;4978318;28;20027;-81
2022/01/08 13:06:58;;;;;;;2.67;1.57;;;;;;;;;;4965713;28;20066;-82
2022/01/08 13:09:24;;;;;;;1.92;1.27;;;;;;;;;;4991029;28;20446;-82
2022/01/08 13:15:21;;;;;;;3.90;1.33;;;;;;;;;;4949500;28;20039;-81
2022/01/08 13:17:47;;;;;;;4.82;1.80;;;;;;;;;;4970895;28;20038;-82
2022/01/08 13:20:13;;;;;;;2.17;1.35;;;;;;;;;;4980713;28;20058;-81
2022/01/08 13:22:39;;;;;;;3.22;1.40;;;;;;;;;;4977481;28;20034;-81
2022/01/08 13:25:46;;;;;;;2.22;1.58;;;;;;;;;;4977656;28;20023;-81
2022/01/08 13:40:03;;;;;;;;;;;;;;;;;;4980001;28;20367;-82
2022/01/08 13:42:30;;;;;;;3.40;1.60;;;;;;;;;;4989376;28;19956;-82
2022/01/08 13:45:07;;;;;;;6.57;1.40;;;;;;;;;;4979053;28;20031;-82
2022/01/08 13:47:33;;;;;;;3.72;1.77;;;;;;;;;;4977207;28;20510;-82
2022/01/08 13:50:21;;;;;;;4.75;1.60;;;;;;;;;;4980041;28;20034;-82
2022/01/08 13:52:55;;;;;;;2.75;1.25;;;;;;;;;;4979132;28;20111;-82
2022/01/08 13:55:52;;;;;;;2.38;1.45;;;;;;;;;;4978216;28;20027;-82
2022/01/08 13:58:35;;;;;;;5.20;1.60;;;;;;;;;;4977611;28;20027;-84
2022/01/08 14:01:04;;;;;;;3.45;1.52;;;;;;;;;;4980611;28;20018;-84
2022/01/08 14:03:33;;;;;;;5.53;1.40;;;;;;;;;;4980094;28;20153;-86
2022/01/08 14:06:06;;;;;;;3.83;1.83;;;;;;;;;;4978553;28;20058;-85
2022/01/08 14:08:33;;;;;;;2.20;1.30;;;;;;;;;;4978609;28;20034;-85
2022/01/08 14:11:01;;;;;;;5.47;1.60;;;;;;;;;;4982529;28;20033;-84
2022/01/08 14:23:14;;;;;;;3.28;1.33;;;;;;;;;;4997893;28;20034;-83
2022/01/08 14:29:04;;;;;;;2.40;1.10;;;;;;;;;;4980652;28;20026;-83
2022/01/08 14:31:30;;;;;;;3.85;1.10;;;;;;;;;;4987421;23;20069;-83
2022/01/08 14:34:00;;;;;;;4.47;1.25;;;;;;;;;;4997321;28;20125;-82
2022/01/08 14:36:26;;;;;;;4.28;1.05;;;;;;;;;;4998955;28;20098;-80
2022/01/08 14:38:52;;;;;;;1.90;1.13;;;;;;;;;;4988841;28;20393;-83
2022/01/08 14:41:31;;;;;;;1.30;1.20;;;;;;;;;;5006625;28;20064;-81
2022/01/08 14:43:58;;;;;;;2.97;1.52;;;;;;;;;;4967887;28;20035;-82
2022/01/08 14:46:24;;;;;;;3.83;1.73;;;;;;;;;;4975466;28;20031;-81
2022/01/08 14:48:54;;;;;;;5.70;1.30;;;;;;;;;;4979700;28;20035;-82
2022/01/08 14:51:20;;;;;;;1.77;1.20;;;;;;;;;;4977805;28;20471;-82
2022/01/08 14:53:46;;;;;;;4.63;1.23;;;;;;;;;;4978103;28;20025;-82
2022/01/08 14:56:15;;;;;;;1.83;1.23;;;;;;;;;;4977378;28;20023;-82
2022/01/08 14:58:41;;;;;;;5.53;1.20;;;;;;;;;;4978750;28;20491;-82
2022/01/08 15:01:07;;;;;;;2.33;1.10;;;;;;;;;;4978521;28;20050;-82
2022/01/08 15:03:33;;;;;;;1.48;1.15;;;;;;;;;;4979700;28;20030;-84
2022/01/08 15:05:59;;;;;;;4.97;1.55;;;;;;;;;;4986655;28;20154;-82
2022/01/08 15:08:26;;;;;;;7.57;1.58;;;;;;;;;;4976089;28;20091;-85
2022/01/08 15:10:52;;;;;;;4.38;1.33;;;;;;;;;;4977329;28;20034;-85
2022/01/08 15:13:18;;;;;;;5.40;1.45;;;;;;;;;;4977184;28;20027;-83
2022/01/08 15:15:44;;;;;;;3.95;1.65;;;;;;;;;;4978735;28;20100;-83
2022/01/08 15:18:11;;;;;;;2.63;1.30;;;;;;;;;;4977727;28;20056;-83
2022/01/08 15:20:37;;;;;;;1.83;1.23;;;;;;;;;;4976398;28;20033;-82
2022/01/08 15:23:04;;;;;;;4.43;1.30;;;;;;;;;;4980499;28;20030;-83
2022/01/08 15:25:31;;;;;;;5.85;1.30;;;;;;;;;;4979633;28;20022;-84
2022/01/08 15:27:57;;;;;;;3.13;1.63;;;;;;;;;;4978301;28;20031;-85
2022/01/08 15:30:54;;;;;;;2.65;1.02;;;;;;;;;;4979464;28;20033;-84
2022/01/08 15:33:20;;;;;;;4.40;1.42;;;;;;;;;;4977191;28;20114;-85
2022/01/08 15:35:48;;;;;;;6.38;1.40;;;;;;;;;;4976653;28;20069;-84
2022/01/08 15:38:14;;;;;;;1.10;0.93;;;;;;;;;;4976882;28;20483;-85
2022/01/08 15:40:40;;;;;;;2.35;1.40;;;;;;;;;;4976292;28;20751;-83
2022/01/08 15:43:06;;;;;;;2.60;1.58;;;;;;;;;;4977346;28;20037;-83
2022/01/08 15:45:34;;;;;;;3.10;1.75;;;;;;;;;;4976809;28;20547;-83
2022/01/08 15:48:04;;;;;;;7.97;1.75;;;;;;;;;;4975741;28;20102;-83
2022/01/08 15:50:30;;;;;;;3.38;1.85;;;;;;;;;;4976464;28;20084;-85
2022/01/08 15:53:03;;;;;;;4.35;1.58;;;;;;;;;;4979473;28;20046;-84
2022/01/08 15:55:29;;;;;;;5.53;2.30;;;;;;;;;;4980009;28;20031;-84
2022/01/08 15:57:55;;;;;;;4.15;2.33;;;;;;;;;;4978118;28;20058;-86
2022/01/08 16:00:21;;;;;;;2.33;1.73;;;;;;;;;;4975502;28;20102;-85
2022/01/08 16:02:48;;;;;;;6.75;1.85;;;;;;;;;;4977196;28;20053;-85
2022/01/08 16:05:15;;;;;;;7.72;2.17;;;;;;;;;;4975649;28;20019;-85
2022/01/08 16:07:41;;;;;;;4.05;2.00;;;;;;;;;;4969144;28;20029;-86
2022/01/08 16:10:08;;;;;;;3.17;2.30;;;;;;;;;;4977880;28;20034;-86
2022/01/08 16:12:34;;;;;;;4.25;2.50;;;;;;;;;;4977526;28;20490;-85
2022/01/08 16:15:00;;;;;;;5.75;2.20;;;;;;;;;;4978622;28;20034;-85
2022/01/08 16:17:27;;;;;;;2.75;2.20;;;;;;;;;;4981328;28;20037;-87
2022/01/08 16:19:53;;;;;;;2.45;1.92;;;;;;;;;;4981383;28;20041;-84
2022/01/08 16:22:19;;;;;;;5.90;2.30;;;;;;;;;;4980436;28;20062;-86